Airport Name : Cam Ranh

Other Name : Cam Ranh

ICAO : VVCR

IATA :

FAA :

Latitude : 11.998153

Longitude : 109.219372

Country : Vietnam

Local Date and Time : 10/16/2018 2:27:00 PM

 

TAF (Terminal Aerodrome Forecast)

TAF VVCR 160500Z 1606/1706 09010KT 9999 FEW015 BECMG 1613/1614 34008KT BECMG 1701/1702 09010KT

 

METAR (METeorological Aerodrome Report)

VVCR 160700Z 11009KT CAVOK 32/26 Q1010 NOSIG

VVCR 160630Z 11008KT CAVOK 32/26 Q1011 NOSIG

VVCR 160600Z 12010KT CAVOK 32/26 Q1011 NOSIG

VVCR 160530Z 10009KT CAVOK 32/26 Q1012 NOSIG

VVCR 160500Z 11008KT CAVOK 32/25 Q1012 NOSIG

VVCR 160430Z 10007KT CAVOK 32/25 Q1013 NOSIG

VVCR 160400Z 10006KT 070V140 CAVOK 32/26 Q1013 NOSIG

VVCR 160330Z 09006KT CAVOK 32/26 Q1013 NOSIG